Time;durP1;ratioP1;P1;durP2;ratioP2;P2;SDS_P1;SDS_P2;PMS_P1;PMS_P2;Temp;Humidity;BMP_temperature;BMP_pressure;BME280_temperature;BME280_humidity;BME280_pressure;Samples;Min_cycle;Max_cycle;Signal;HPM_P1;HPM_P2
2021/04/12 00:00:47;;;;;;;24.72;11.68;;;;;;;10.24;50.09;101417.30;1752592;77;21031;-72
2021/04/12 00:03:27;;;;;;;15.60;9.48;;;;;;;10.21;50.19;101418.75;1707406;78;21050;-73
2021/04/12 00:09:17;;;;;;;15.60;9.45;;;;;;;10.16;49.03;101408.48;1734989;77;20975;-73
2021/04/12 00:12:03;;;;;;;15.90;9.38;;;;;;;10.15;48.83;101408.55;1726363;80;21470;-71
2021/04/12 00:15:02;;;;;;;15.85;9.85;;;;;;;10.13;48.82;101408.61;1748725;79;21377;-71
2021/04/12 00:17:39;;;;;;;18.37;9.90;;;;;;;10.11;49.71;101411.75;1724203;81;20949;-73
2021/04/12 00:20:38;;;;;;;16.02;9.70;;;;;;;10.09;48.93;101408.38;1720313;77;21192;-74
2021/04/12 00:23:23;;;;;;;17.92;10.98;;;;;;;10.08;47.84;101405.35;1733988;77;20937;-73
2021/04/12 00:26:04;;;;;;;15.53;10.43;;;;;;;10.06;47.14;101401.10;1733171;77;21370;-71
2021/04/12 00:28:57;;;;;;;18.05;10.88;;;;;;;10.05;46.34;101400.26;1750201;77;21350;-71
2021/04/12 00:31:47;;;;;;;16.65;10.50;;;;;;;10.03;45.89;101393.39;1726972;80;20968;-72
2021/04/12 00:34:26;;;;;;;16.57;11.28;;;;;;;10.01;46.04;101388.68;1702358;80;23136;-73
2021/04/12 00:37:21;;;;;;;17.50;12.75;;;;;;;9.99;46.33;101376.95;1676035;80;21030;-72
2021/04/12 00:40:13;;;;;;;19.95;13.13;;;;;;;10.04;46.39;101381.98;1808343;72;27917;-72
2021/04/12 00:43:24;;;;;;;16.10;11.53;;;;;;;10.02;46.04;101383.81;1776255;75;21046;-71
2021/04/12 00:46:34;;;;;;;15.90;11.78;;;;;;;10.05;46.21;101384.53;1730701;76;21243;-71
2021/04/12 00:52:48;;;;;;;17.65;11.63;;;;;;;10.06;45.51;101369.19;1795640;74;22672;-72
2021/04/12 00:55:46;;;;;;;17.87;11.93;;;;;;;10.03;45.17;101361.48;1741307;77;21042;-71
2021/04/12 00:59:06;;;;;;;17.60;12.28;;;;;;;10.04;45.24;101366.25;1772619;77;20863;-73
2021/04/12 01:02:01;;;;;;;17.73;12.07;;;;;;;10.03;45.60;101355.39;1777495;76;20926;-72
2021/04/12 01:05:09;;;;;;;18.75;12.28;;;;;;;10.03;45.38;101343.61;1757313;78;20967;-68
2021/04/12 01:08:17;;;;;;;15.75;11.63;;;;;;;10.08;46.22;101331.13;1771231;75;22787;-74
2021/04/12 01:11:23;;;;;;;15.93;11.30;;;;;;;10.02;46.51;101324.85;1708044;80;21484;-72
2021/04/12 01:14:15;;;;;;;18.95;11.28;;;;;;;10.00;45.63;101317.52;1667094;83;21164;-73
2021/04/12 01:17:37;;;;;;;19.07;10.90;;;;;;;9.98;45.77;101315.43;1697499;81;20993;-72
2021/04/12 01:20:43;;;;;;;16.32;9.78;;;;;;;10.01;45.82;101299.59;1824231;73;22738;-72
2021/04/12 01:23:55;;;;;;;17.75;10.75;;;;;;;9.95;45.88;101302.86;1723575;78;21010;-74
2021/04/12 01:26:46;;;;;;;15.72;11.85;;;;;;;9.95;45.56;101305.48;1780058;76;21361;-72
2021/04/12 01:29:54;;;;;;;13.58;9.90;;;;;;;9.96;45.45;101303.73;1766656;79;21064;-73
2021/04/12 01:33:01;;;;;;;14.68;10.15;;;;;;;9.96;45.49;101306.35;1734797;78;20938;-73
2021/04/12 01:35:57;;;;;;;16.30;10.30;;;;;;;9.96;45.66;101307.66;1752984;78;21045;-74
2021/04/12 01:38:33;;;;;;;21.23;10.82;;;;;;;9.95;45.67;101308.09;1799243;75;20969;-74
2021/04/12 01:41:36;;;;;;;13.78;9.68;;;;;;;9.96;46.18;101308.97;1704162;79;21165;-71
2021/04/12 01:44:30;;;;;;;13.68;10.38;;;;;;;9.95;46.16;101312.03;1725721;81;21376;-74
2021/04/12 01:47:14;;;;;;;13.75;9.60;;;;;;;9.97;46.41;101306.73;1703344;84;21014;-73
2021/04/12 01:53:46;;;;;;;11.95;9.03;;;;;;;10.01;46.09;101295.66;1821387;73;22805;-75
2021/04/12 01:56:38;;;;;;;11.15;8.00;;;;;;;9.98;46.18;101302.33;1777680;78;20974;-76
2021/04/12 01:59:55;;;;;;;10.25;7.78;;;;;;;10.03;46.50;101301.20;1790297;73;22853;-73
2021/04/12 02:02:54;;;;;;;12.07;8.18;;;;;;;10.00;46.44;101309.66;1720670;78;20996;-73
2021/04/12 02:09:05;;;;;;;11.90;7.10;;;;;;;10.04;46.90;101306.83;1794720;74;22397;-73
2021/04/12 02:11:36;;;;;;;;;;;;;;;10.01;46.66;101312.69;1752609;75;21383;-73
2021/04/12 02:14:35;;;;;;;12.82;6.75;;;;;;;10.01;46.79;101315.31;1736971;78;21200;-72
2021/04/12 02:17:17;;;;;;;9.93;6.70;;;;;;;10.00;47.07;101310.97;1729681;79;20921;-74
2021/04/12 02:20:21;;;;;;;14.40;7.50;;;;;;;10.00;47.25;101310.97;1741426;78;20993;-73
2021/04/12 02:23:34;;;;;;;15.13;7.35;;;;;;;10.01;47.23;101308.76;1711443;79;20986;-74
2021/04/12 02:26:13;;;;;;;10.63;6.67;;;;;;;10.02;47.51;101311.75;1722516;80;21045;-74
2021/04/12 02:29:02;;;;;;;13.13;7.65;;;;;;;10.00;47.75;101313.12;1743527;78;21358;-74
2021/04/12 02:32:47;;;;;;;10.20;6.45;;;;;;;10.01;47.83;101312.69;1716990;78;20995;-70
2021/04/12 02:35:33;;;;;;;9.65;6.35;;;;;;;10.02;48.02;101305.20;1796644;78;20913;-74
2021/04/12 02:41:48;;;;;;;12.07;7.00;;;;;;;10.09;48.58;101281.28;1786131;74;22778;-73
2021/04/12 02:44:45;;;;;;;10.70;6.73;;;;;;;10.06;48.82;101291.04;1754422;78;20992;-73
2021/04/12 02:48:10;;;;;;;10.55;7.25;;;;;;;10.05;49.00;101290.20;1752260;78;21375;-71
2021/04/12 02:51:23;;;;;;;10.65;6.40;;;;;;;10.06;49.10;101285.80;1762369;77;21031;-71
2021/04/12 02:54:33;;;;;;;11.12;6.62;;;;;;;10.07;49.01;101292.28;1790043;78;20957;-72
2021/04/12 02:57:34;;;;;;;9.60;6.97;;;;;;;10.09;49.45;101286.95;1788640;77;21563;-69
2021/04/12 03:00:27;;;;;;;8.70;6.65;;;;;;;10.09;49.77;101297.00;1811588;76;20914;-72
2021/04/12 03:03:21;;;;;;;11.45;7.08;;;;;;;10.10;50.06;101297.84;1783514;75;21348;-69
2021/04/12 03:06:12;;;;;;;9.63;6.85;;;;;;;10.08;50.23;101299.21;1787140;77;21015;31
2021/04/12 03:09:11;;;;;;;13.78;6.78;;;;;;;10.08;50.41;101304.92;1797525;76;22267;-72
2021/04/12 03:12:05;;;;;;;10.50;6.53;;;;;;;10.11;50.80;101308.70;1843842;77;21005;-74
2021/04/12 03:14:59;;;;;;;17.02;7.30;;;;;;;10.10;50.70;101305.70;1803301;76;20969;-71
2021/04/12 03:17:54;;;;;;;15.43;8.10;;;;;;;10.11;51.02;101308.70;1830159;76;21179;-74
2021/04/12 03:21:24;;;;;;;12.85;7.70;;;;;;;10.11;51.69;101310.01;1826328;75;21024;-73
2021/04/12 03:24:27;;;;;;;13.13;7.90;;;;;;;10.11;54.19;101311.32;1812572;76;20949;-72
2021/04/12 03:27:10;;;;;;;16.17;8.43;;;;;;;10.11;57.13;101304.30;1813625;76;21024;-74
2021/04/12 03:30:15;;;;;;;17.40;9.37;;;;;;;10.12;59.49;101317.81;1815931;75;20993;31
2021/04/12 03:33:05;;;;;;;15.60;9.00;;;;;;;10.12;59.49;101317.81;1817189;77;21382;-73
2021/04/12 03:36:05;;;;;;;18.02;8.73;;;;;;;10.11;59.95;101314.78;1793693;75;21044;-72
2021/04/12 03:38:49;;;;;;;19.55;8.13;;;;;;;10.09;59.96;101312.72;1725600;79;20921;31
2021/04/12 03:41:38;;;;;;;14.93;8.13;;;;;;;10.13;59.89;101312.94;1722632;81;20958;-73
2021/04/12 03:44:57;;;;;;;14.80;7.97;;;;;;;10.15;59.82;101305.02;1778030;77;20966;-73
2021/04/12 03:47:49;;;;;;;21.17;8.00;;;;;;;10.14;59.67;101309.42;1790372;77;21363;-71
2021/04/12 03:50:39;;;;;;;11.85;7.92;;;;;;;10.14;59.52;101308.11;1831647;78;20978;-72
2021/04/12 03:53:40;;;;;;;17.45;8.55;;;;;;;10.16;59.43;101308.88;1794787;79;20937;-72
2021/04/12 03:56:44;;;;;;;17.40;9.50;;;;;;;10.17;59.37;101308.42;1816939;79;20982;-72
2021/04/12 03:59:43;;;;;;;15.58;8.95;;;;;;;10.19;59.30;101302.64;1769210;75;20990;-72
2021/04/12 04:02:59;;;;;;;16.65;8.88;;;;;;;10.22;59.40;101306.89;1804412;76;21454;31
2021/04/12 04:06:10;;;;;;;16.60;9.10;;;;;;;10.23;59.75;101304.20;1760589;80;21388;-72
2021/04/12 04:08:58;;;;;;;19.20;9.23;;;;;;;10.25;59.91;101308.91;1736099;76;21081;-71
2021/04/12 04:12:05;;;;;;;17.60;10.60;;;;;;;10.23;60.51;101305.52;1773742;77;20974;-71
2021/04/12 04:15:16;;;;;;;14.35;9.00;;;;;;;10.24;60.72;101311.13;1728296;79;20941;-74
2021/04/12 04:18:25;;;;;;;22.65;12.58;;;;;;;10.24;61.40;101312.44;1796212;76;21817;-72
2021/04/12 04:21:28;;;;;;;17.98;10.13;;;;;;;10.25;62.38;101307.60;1730661;79;21131;-72
2021/04/12 04:24:26;;;;;;;22.35;10.85;;;;;;;10.27;63.07;101303.14;1789013;76;20959;-72
2021/04/12 04:27:24;;;;;;;19.17;9.20;;;;;;;10.31;63.16;101315.65;1783519;78;21192;-75
2021/04/12 04:37:06;;;;;;;22.87;12.03;;;;;;;10.46;63.18;101313.61;1790504;77;21455;31
2021/04/12 04:39:52;;;;;;;16.17;10.48;;;;;;;10.56;63.15;101315.31;1766115;79;21385;-75
2021/04/12 04:43:16;;;;;;;19.67;11.03;;;;;;;10.58;63.31;101309.09;1795385;76;20918;-75
2021/04/12 04:46:04;;;;;;;35.68;16.73;;;;;;;10.58;63.33;101313.47;1697714;83;21341;-75
2021/04/12 04:48:46;;;;;;;34.55;16.45;;;;;;;10.60;64.99;101313.40;1736335;80;21384;-76
2021/04/12 04:51:44;;;;;;;32.05;19.48;;;;;;;10.54;65.20;101308.84;1742554;76;21402;-76
2021/04/12 04:55:01;;;;;;;32.43;15.83;;;;;;;10.50;65.84;101312.54;1784307;76;20971;-76
2021/04/12 04:57:58;;;;;;;31.25;16.27;;;;;;;10.46;66.17;101317.54;1743256;82;20959;-77
2021/04/12 05:01:07;;;;;;;29.35;14.98;;;;;;;10.46;66.21;101315.39;1743881;76;20926;-81
2021/04/12 05:07:30;;;;;;;33.80;17.75;;;;;;;10.54;66.49;101309.32;1726363;79;21291;-84
2021/04/12 05:10:52;;;;;;;31.62;17.30;;;;;;;10.61;66.72;101309.40;1761962;79;21077;31
2021/04/12 05:13:38;;;;;;;29.87;15.45;;;;;;;10.67;66.74;101303.86;1731994;80;21025;31
2021/04/12 05:17:09;;;;;;;40.95;20.05;;;;;;;10.75;67.13;101291.66;1807159;74;22634;-78
2021/04/12 05:19:54;;;;;;;38.75;20.60;;;;;;;10.70;67.35;101295.83;1714058;78;21164;-78
2021/04/12 05:22:42;;;;;;;36.33;19.40;;;;;;;10.70;67.37;101296.30;1774330;77;21388;-78
2021/04/12 05:25:33;;;;;;;36.68;18.12;;;;;;;10.73;67.50;101300.91;1772221;78;20981;-80
2021/04/12 05:28:32;;;;;;;28.87;15.98;;;;;;;10.78;67.46;101305.48;1728873;83;21014;-79
2021/04/12 05:31:46;;;;;;;33.02;17.12;;;;;;;10.81;67.54;101292.67;1728912;81;21041;-80
2021/04/12 05:34:37;;;;;;;25.23;15.65;;;;;;;10.89;67.44;101294.89;1733638;76;21326;-75
2021/04/12 05:38:06;;;;;;;26.57;14.87;;;;;;;10.97;67.26;101300.61;1765076;79;22125;-83
2021/04/12 05:40:47;;;;;;;32.28;15.30;;;;;;;11.01;66.94;101301.32;1760412;77;20994;-81
2021/04/12 05:43:29;;;;;;;31.85;16.07;;;;;;;11.05;66.77;101305.45;1747858;78;21112;-78
2021/04/12 05:46:40;;;;;;;21.90;14.45;;;;;;;11.07;66.70;101311.48;1762074;75;21639;-79
2021/04/12 05:49:57;;;;;;;26.35;13.85;;;;;;;11.06;66.61;101315.89;1770781;76;20956;-80
2021/04/12 05:52:49;;;;;;;28.60;14.63;;;;;;;11.04;66.63;101316.90;1762452;78;22042;-76
2021/04/12 05:55:51;;;;;;;34.50;15.45;;;;;;;11.02;66.78;101319.59;1671926;82;21006;-72
2021/04/12 05:59:09;;;;;;;25.15;14.30;;;;;;;10.99;66.96;101327.63;1746569;77;21272;-79
2021/04/12 06:02:12;;;;;;;21.55;12.78;;;;;;;11.00;67.28;101324.06;1794015;74;22502;-80
2021/04/12 06:05:38;;;;;;;30.72;16.35;;;;;;;10.93;67.42;101332.71;1781946;77;21277;-80
2021/04/12 06:08:44;;;;;;;30.92;16.00;;;;;;;10.91;68.00;101325.84;1762415;77;21396;-79
2021/04/12 06:11:51;;;;;;;27.70;16.23;;;;;;;10.87;68.45;101331.73;1789646;78;20906;-75
2021/04/12 06:15:00;;;;;;;18.42;13.55;;;;;;;10.83;68.46;101338.48;1795298;79;20958;-79
2021/04/12 06:18:20;;;;;;;26.17;13.62;;;;;;;10.86;68.43;101339.67;1782844;78;21081;-81
2021/04/12 06:21:26;;;;;;;29.48;14.65;;;;;;;10.87;68.46;101335.66;1801913;77;21375;-80
2021/04/12 06:24:36;;;;;;;38.05;18.52;;;;;;;10.87;68.48;101329.55;1808477;77;22382;-80
2021/04/12 06:27:21;;;;;;;30.57;18.80;;;;;;;10.88;68.44;101330.79;1797342;78;21456;31
2021/04/12 06:30:03;;;;;;;28.52;16.67;;;;;;;10.92;68.43;101332.81;1772117;77;21468;-81
2021/04/12 06:33:02;;;;;;;36.77;17.12;;;;;;;10.93;68.47;101339.27;1793076;77;20905;-81
2021/04/12 06:35:58;;;;;;;27.05;15.98;;;;;;;10.97;68.29;101337.36;1795467;77;21041;-80
2021/04/12 06:39:08;;;;;;;51.85;29.50;;;;;;;11.02;68.20;101341.06;1725651;81;21360;-73
2021/04/12 06:42:23;;;;;;;35.20;18.10;;;;;;;11.03;68.16;101341.43;1776890;76;21895;-75
2021/04/12 06:45:52;;;;;;;32.28;18.02;;;;;;;11.03;68.34;101334.43;1776001;77;21470;-80
2021/04/12 06:49:05;;;;;;;32.25;19.70;;;;;;;11.03;68.41;101331.80;1741184;77;20959;-79
2021/04/12 06:52:15;;;;;;;31.45;20.23;;;;;;;11.05;68.53;101332.58;1753943;80;21417;-81
2021/04/12 06:55:24;;;;;;;34.55;20.82;;;;;;;11.15;68.53;101331.64;1783326;74;21370;-83
2021/04/12 06:58:44;;;;;;;34.23;19.92;;;;;;;11.32;68.25;101330.78;1754855;76;20938;-83
2021/04/12 07:01:56;;;;;;;40.10;19.65;;;;;;;11.52;67.59;101335.00;1797527;77;20910;-84
2021/04/12 07:05:23;;;;;;;23.62;14.28;;;;;;;11.74;66.47;101330.78;1787218;78;21455;-86
2021/04/12 07:08:31;;;;;;;23.07;12.80;;;;;;;11.92;64.60;101331.59;1726089;77;20930;-82
2021/04/12 07:11:20;;;;;;;20.95;10.60;;;;;;;11.98;63.59;101334.73;1781090;77;21316;-84
2021/04/12 07:14:19;;;;;;;27.05;12.73;;;;;;;11.97;62.43;101333.02;1748836;78;21096;-75
2021/04/12 07:17:44;;;;;;;19.70;10.85;;;;;;;11.91;62.52;101328.56;1736005;81;21007;-76
2021/04/12 07:20:46;;;;;;;23.90;14.10;;;;;;;11.86;62.53;101338.45;1764320;77;20940;-88
2021/04/12 07:23:58;;;;;;;17.37;10.63;;;;;;;11.79;62.74;101344.51;1690346;78;21078;-74
2021/04/12 07:26:53;;;;;;;20.27;11.25;;;;;;;11.76;63.00;101342.89;1655154;83;22020;-75
2021/04/12 07:33:17;;;;;;;31.15;15.18;;;;;;;11.94;62.90;101341.53;1816354;78;22655;-77
2021/04/12 07:36:36;;;;;;;23.42;11.75;;;;;;;11.93;62.84;101339.38;1653634;86;21056;-73
2021/04/12 07:40:08;;;;;;;34.35;14.03;;;;;;;11.98;62.69;101350.52;1664410;80;21395;31
2021/04/12 07:43:18;;;;;;;25.48;15.03;;;;;;;12.05;62.47;101344.89;1726085;80;20961;31
2021/04/12 07:46:15;;;;;;;33.53;19.67;;;;;;;12.11;62.37;101338.84;1675501;81;21028;31
2021/04/12 07:49:17;;;;;;;28.45;18.52;;;;;;;12.25;63.37;101342.05;1715099;80;20921;-73
2021/04/12 07:52:19;;;;;;;23.87;17.40;;;;;;;12.39;63.41;101338.64;1744797;80;20924;-77
2021/04/12 07:55:29;;;;;;;29.23;17.70;;;;;;;12.57;62.43;101337.59;1729290;81;21358;-76
2021/04/12 07:58:43;;;;;;;28.55;18.00;;;;;;;12.80;62.40;101327.52;1753962;78;20946;-74
2021/04/12 08:01:54;;;;;;;28.40;13.38;;;;;;;13.04;62.09;101332.67;1743887;78;21062;-77
2021/04/12 08:05:09;;;;;;;16.27;12.15;;;;;;;13.23;60.18;101336.39;1738783;79;20920;-74
2021/04/12 08:08:05;;;;;;;18.12;14.00;;;;;;;13.34;59.12;101329.64;1721801;78;21056;-75
2021/04/12 08:11:22;;;;;;;11.35;10.28;;;;;;;13.42;58.27;101317.70;1743122;78;21394;-74
2021/04/12 08:14:27;;;;;;;11.35;7.95;;;;;;;13.52;57.55;101330.31;1655037;82;21031;-74
2021/04/12 08:17:34;;;;;;;10.05;7.35;;;;;;;13.60;56.08;101327.59;1758528;75;22758;-79
2021/04/12 08:20:46;;;;;;;9.13;8.23;;;;;;;13.54;56.44;101326.67;1721900;79;21457;-75
2021/04/12 08:23:44;;;;;;;11.15;8.35;;;;;;;13.60;56.36;101319.69;1695055;80;21373;-74
2021/04/12 08:26:56;;;;;;;7.72;6.75;;;;;;;13.80;56.46;101321.56;1695428;81;20987;-74
2021/04/12 08:30:09;;;;;;;10.55;7.75;;;;;;;13.95;55.19;101321.92;1688020;85;21030;-75
2021/04/12 08:33:18;;;;;;;15.43;7.87;;;;;;;13.99;54.80;101336.62;1711240;81;20992;-75
2021/04/12 08:36:32;;;;;;;9.20;7.57;;;;;;;13.91;55.00;101327.02;1710205;80;21359;-74
2021/04/12 08:39:22;;;;;;;7.75;6.70;;;;;;;13.88;55.04;101337.77;1666886;86;21155;-74
2021/04/12 08:42:23;;;;;;;9.30;6.80;;;;;;;13.77;55.24;101332.31;1682154;78;21025;-79
2021/04/12 08:45:40;;;;;;;7.65;6.85;;;;;;;13.70;55.58;101342.39;1705936;81;20979;-79
2021/04/12 08:51:47;;;;;;;15.05;8.05;;;;;;;13.66;56.21;101343.52;1714380;79;20944;-77
2021/04/12 08:54:47;;;;;;;12.60;8.30;;;;;;;13.67;55.91;101335.97;1739461;82;21388;-76
2021/04/12 08:58:00;;;;;;;10.70;9.57;;;;;;;13.74;56.50;101326.77;1754827;77;28088;-75
2021/04/12 09:00:41;;;;;;;12.90;7.70;;;;;;;13.79;56.37;101332.59;1661313;83;20967;-73
2021/04/12 09:03:28;;;;;;;11.53;7.50;;;;;;;14.00;55.98;101327.75;1664442;78;21425;-79
2021/04/12 09:06:39;;;;;;;11.18;8.80;;;;;;;14.09;55.70;101325.88;1682470;78;21043;-75
2021/04/12 09:09:53;;;;;;;12.20;10.23;;;;;;;14.14;55.64;101325.58;1676945;85;21016;-74
2021/04/12 09:13:07;;;;;;;20.77;17.27;;;;;;;14.27;55.22;101325.17;1691877;84;21050;-74
2021/04/12 09:16:08;;;;;;;13.05;8.80;;;;;;;14.38;55.16;101318.34;1685090;82;21277;-75
2021/04/12 09:19:23;;;;;;;9.43;7.58;;;;;;;14.48;54.60;101315.48;1662644;83;22481;-73
2021/04/12 09:22:36;;;;;;;11.57;8.83;;;;;;;14.56;54.34;101318.48;1658433;86;20995;-74
2021/04/12 09:25:38;;;;;;;16.23;9.43;;;;;;;14.67;54.54;101325.25;1620096;86;21051;-74
2021/04/12 09:28:38;;;;;;;8.90;7.53;;;;;;;14.80;53.95;101334.98;1595595;85;21602;-75
2021/04/12 09:31:32;;;;;;;6.80;5.40;;;;;;;14.83;53.65;101335.63;1588879;87;21378;-81
2021/04/12 09:34:40;;;;;;;7.15;5.42;;;;;;;14.84;53.48;101339.11;1626723;84;21474;-80
2021/04/12 09:38:13;;;;;;;6.55;4.95;;;;;;;14.97;53.11;101333.87;1884719;73;22565;-79
2021/04/12 09:41:01;;;;;;;5.12;4.55;;;;;;;14.99;52.82;101331.97;1783539;77;21411;31
2021/04/12 09:44:09;;;;;;;5.42;4.37;;;;;;;15.07;52.52;101328.31;1733625;77;21346;-75
2021/04/12 09:47:20;;;;;;;7.15;5.33;;;;;;;15.14;52.04;101334.91;1741506;76;21626;-76
2021/04/12 09:50:31;;;;;;;4.37;3.87;;;;;;;15.34;50.83;101317.20;1727822;79;21395;-80
2021/04/12 09:53:44;;;;;;;4.42;3.58;;;;;;;15.61;50.03;101328.14;1765558;81;21004;-81
2021/04/12 09:56:43;;;;;;;4.80;4.35;;;;;;;15.61;50.03;101328.14;1765559;76;21033;-76
2021/04/12 09:59:52;;;;;;;15.32;10.98;;;;;;;16.06;49.65;101320.56;1743789;76;21368;-76
2021/04/12 10:09:34;;;;;;;5.70;4.58;;;;;;;16.65;47.43;101326.88;1791662;77;22235;-74
2021/04/12 10:13:06;;;;;;;5.50;4.55;;;;;;;16.54;47.91;101325.89;1777633;77;21029;-76
2021/04/12 10:16:10;;;;;;;4.42;3.85;;;;;;;16.52;48.31;101332.27;1810243;77;21530;31
2021/04/12 10:19:07;;;;;;;11.22;6.40;;;;;;;16.56;47.47;101331.92;1735040;78;20956;-83
2021/04/12 10:21:59;;;;;;;6.33;3.83;;;;;;;16.42;47.49;101331.23;1761273;78;20940;-79
2021/04/12 10:24:56;;;;;;;7.58;4.90;;;;;;;16.29;47.99;101320.20;1776410;78;21472;-74
2021/04/12 10:27:47;;;;;;;7.67;4.83;;;;;;;16.21;48.21;101325.23;1759960;79;21047;-71
2021/04/12 10:33:24;;;;;;;9.25;4.58;;;;;;;15.75;48.33;101329.35;1727247;78;20951;-75
2021/04/12 10:35:57;;;;;;;5.12;4.25;;;;;;;15.58;48.77;101340.72;1708376;82;20955;-74
2021/04/12 10:38:38;;;;;;;4.60;4.10;;;;;;;15.29;49.24;101340.92;1771013;78;20925;-76
2021/04/12 10:41:29;;;;;;;10.10;5.47;;;;;;;15.03;49.81;101337.39;1838730;75;20969;-80
2021/04/12 10:44:33;;;;;;;7.28;4.33;;;;;;;14.90;50.39;101353.23;1852760;75;21909;31
2021/04/12 10:47:34;;;;;;;7.78;5.20;;;;;;;14.65;51.40;101357.50;1861936;76;20945;-74
2021/04/12 10:50:53;;;;;;;8.08;5.83;;;;;;;14.65;51.40;101357.50;1878912;74;21006;-80
2021/04/12 10:53:48;;;;;;;9.53;5.87;;;;;;;14.45;51.70;101353.48;1860893;75;21330;-75
2021/04/12 10:56:41;;;;;;;7.17;5.53;;;;;;;14.34;52.60;101359.92;1766698;81;20969;-76
2021/04/12 11:00:07;;;;;;;7.83;6.92;;;;;;;14.34;52.60;101359.92;1758959;79;21381;-81
2021/04/12 11:03:01;;;;;;;8.40;6.03;;;;;;;14.30;52.51;101356.63;1705750;81;21129;-76
2021/04/12 11:05:35;;;;;;;7.10;6.30;;;;;;;14.29;52.75;101361.98;1729600;78;21024;-79
2021/04/12 11:08:35;;;;;;;9.73;6.53;;;;;;;14.36;52.69;101363.31;1695021;79;21067;-76
2021/04/12 11:11:30;;;;;;;12.05;6.65;;;;;;;14.46;52.76;101353.84;1669147;84;21628;-76
2021/04/12 11:14:39;;;;;;;6.12;5.53;;;;;;;14.56;52.24;101363.83;1678947;79;21223;-78
2021/04/12 11:17:50;;;;;;;8.18;7.37;;;;;;;14.58;51.89;101357.50;1650515;87;21025;-75
2021/04/12 11:20:41;;;;;;;7.75;5.53;;;;;;;14.52;52.00;101359.21;1740015;76;20903;-76
2021/04/12 11:23:41;;;;;;;9.18;7.25;;;;;;;14.55;52.08;101370.07;1820601;76;21025;-80
2021/04/12 11:26:54;;;;;;;8.50;6.40;;;;;;;14.58;52.20;101350.06;1787635;76;20957;-73
2021/04/12 11:29:27;;;;;;;7.80;7.00;;;;;;;14.61;52.20;101346.77;1885050;76;21364;-75
2021/04/12 11:32:14;;;;;;;11.95;7.33;;;;;;;14.69;52.06;101358.97;1824102;75;20933;-74
2021/04/12 11:35:18;;;;;;;7.05;6.35;;;;;;;14.71;52.04;101364.99;1780279;77;21057;-73
2021/04/12 11:38:32;;;;;;;8.48;6.37;;;;;;;14.73;51.88;101357.47;1815889;76;20933;-77
2021/04/12 11:41:12;;;;;;;10.43;6.57;;;;;;;14.63;51.81;101360.71;1810520;77;20927;-73
2021/04/12 11:43:49;;;;;;;7.72;6.15;;;;;;;14.53;52.22;101364.01;1811155;75;23115;-78
2021/04/12 11:46:23;;;;;;;13.80;7.22;;;;;;;14.48;52.44;101362.51;1799153;77;21098;-76
2021/04/12 11:49:29;;;;;;;8.50;7.60;;;;;;;14.48;52.72;101361.19;1847758;74;21141;-79
2021/04/12 11:52:03;;;;;;;8.63;7.05;;;;;;;14.47;52.83;101363.47;1812368;75;20984;-75
2021/04/12 11:55:14;;;;;;;9.03;7.30;;;;;;;14.43;52.90;101363.77;1792643;80;21014;-75
2021/04/12 11:58:41;;;;;;;10.15;7.10;;;;;;;14.35;53.20;101366.04;1787355;76;21006;-78
2021/04/12 12:01:30;;;;;;;9.15;7.17;;;;;;;14.30;53.25;101353.14;1811999;79;21344;-77
2021/04/12 12:04:08;;;;;;;12.88;8.90;;;;;;;14.24;53.54;101354.84;1807223;77;21076;-75
2021/04/12 12:07:35;;;;;;;13.80;9.35;;;;;;;14.23;53.78;101351.84;1851356;76;20957;-73
2021/04/12 12:10:16;;;;;;;13.30;9.48;;;;;;;14.24;54.19;101360.13;1840568;75;21067;-74
2021/04/12 12:13:07;;;;;;;14.20;10.32;;;;;;;14.15;54.06;101351.48;1726294;80;22263;-73
2021/04/12 12:15:44;;;;;;;13.95;10.93;;;;;;;14.08;54.39;101359.77;1697656;84;21100;-72
2021/04/12 12:18:32;;;;;;;17.85;13.35;;;;;;;14.08;54.63;101360.25;1692908;80;20967;-74
2021/04/12 12:21:30;;;;;;;12.53;10.05;;;;;;;14.03;54.83;101351.31;1731004;79;21496;-74
2021/04/12 12:24:03;;;;;;;18.48;11.43;;;;;;;14.00;55.13;101357.23;1723515;78;21135;-70
2021/04/12 12:30:08;;;;;;;14.75;10.45;;;;;;;13.88;55.46;101357.06;1726325;79;21106;-72
2021/04/12 12:33:02;;;;;;;;;;;;;;;;;;;;;
2021/04/12 12:36:07;;;;;;;13.58;10.90;;;;;;;13.84;55.88;101356.87;1741233;79;21585;-73
2021/04/12 12:39:02;;;;;;;12.55;10.63;;;;;;;13.86;55.98;101356.30;1739602;78;21028;-74
2021/04/12 12:41:59;;;;;;;14.40;10.48;;;;;;;13.93;55.89;101356.77;1708848;84;21050;-74
2021/04/12 12:44:42;;;;;;;11.68;10.35;;;;;;;13.91;55.73;101361.77;1717124;80;21063;-73
2021/04/12 12:47:17;;;;;;;13.78;9.83;;;;;;;13.87;55.92;101355.37;1738889;79;20971;-76
2021/04/12 12:49:57;;;;;;;12.60;9.45;;;;;;;13.95;55.80;101346.14;1762670;77;22389;-77
2021/04/12 12:52:38;;;;;;;15.28;10.43;;;;;;;13.91;55.70;101351.22;1718440;78;22012;-74
2021/04/12 12:55:29;;;;;;;13.88;10.25;;;;;;;13.93;55.60;101355.45;1711464;80;21367;-73
2021/04/12 12:58:00;;;;;;;12.30;9.93;;;;;;;13.97;55.68;101350.37;1749095;78;21481;-75
2021/04/12 13:00:44;;;;;;;14.53;9.63;;;;;;;14.10;55.75;101353.93;1740913;78;21266;-77
2021/04/12 13:03:18;;;;;;;9.80;8.28;;;;;;;14.23;55.19;101353.17;1735082;76;21113;-80
2021/04/12 13:08:59;;;;;;;13.48;9.70;;;;;;;14.41;54.80;101345.38;1776112;77;22542;-74
2021/04/12 13:11:42;;;;;;;11.10;8.75;;;;;;;14.40;54.66;101352.91;1645660;84;21003;-77
2021/04/12 13:14:45;;;;;;;11.57;8.60;;;;;;;14.44;54.53;101349.13;1804137;74;22786;-73
2021/04/12 13:17:30;;;;;;;13.32;8.55;;;;;;;14.40;54.92;101359.98;1760766;78;20929;-71
2021/04/12 13:20:11;;;;;;;18.62;9.83;;;;;;;14.41;54.69;101357.73;1797916;77;20997;-71
2021/04/12 13:22:45;;;;;;;11.48;9.35;;;;;;;14.42;54.55;101363.38;1746469;77;21066;-72
2021/04/12 13:25:42;;;;;;;11.08;8.90;;;;;;;14.42;54.43;101353.66;1724591;77;20987;-72
2021/04/12 13:28:36;;;;;;;15.88;8.63;;;;;;;14.44;54.73;101360.17;1732959;76;21130;-76
2021/04/12 13:31:12;;;;;;;18.67;13.43;;;;;;;14.46;54.76;101361.76;1738703;78;21586;31
2021/04/12 13:33:47;;;;;;;17.87;10.05;;;;;;;14.46;54.79;101367.03;1712413;83;21361;-71
2021/04/12 13:36:23;;;;;;;13.38;8.85;;;;;;;14.44;54.71;101370.24;1739871;79;21255;-77
2021/04/12 13:38:53;;;;;;;14.80;9.65;;;;;;;14.41;54.79;101376.21;1761177;78;21070;-77
2021/04/12 13:41:24;;;;;;;10.93;8.63;;;;;;;14.38;55.10;101375.06;1776672;79;21010;-74
2021/04/12 13:43:55;;;;;;;14.05;8.58;;;;;;;14.33;54.74;101379.32;1738411;80;21545;-78
2021/04/12 13:46:28;;;;;;;14.98;9.05;;;;;;;14.27;55.03;101381.02;1691933;81;21338;-74
2021/04/12 13:49:21;;;;;;;14.03;9.20;;;;;;;14.20;55.36;101376.61;1728118;76;20942;-79
2021/04/12 13:55:12;;;;;;;18.05;11.20;;;;;;;14.08;55.79;101394.06;1802590;76;20998;-71
2021/04/12 13:58:04;;;;;;;20.05;10.75;;;;;;;14.06;55.89;101399.06;1778608;75;20893;-77
2021/04/12 14:00:53;;;;;;;19.45;12.53;;;;;;;14.07;56.01;101395.46;1825248;76;21364;-69
2021/04/12 14:03:27;;;;;;;17.92;11.40;;;;;;;14.09;56.06;101402.36;1801232;77;21451;-69
2021/04/12 14:06:09;;;;;;;14.00;9.63;;;;;;;14.12;56.08;101397.36;1787142;77;20989;-78
2021/04/12 14:08:51;;;;;;;14.17;10.10;;;;;;;14.10;55.89;101407.16;1767865;77;21516;-77
2021/04/12 14:11:44;;;;;;;14.78;8.25;;;;;;;13.99;55.89;101405.19;1772643;79;21012;-69
2021/04/12 14:14:23;;;;;;;16.82;11.48;;;;;;;13.91;56.25;101402.64;1809794;77;21184;-68
2021/04/12 14:17:09;;;;;;;17.65;12.15;;;;;;;13.83;56.51;101406.60;1789122;77;21454;-79
2021/04/12 14:20:16;;;;;;;13.75;8.33;;;;;;;13.79;56.76;101406.41;1710003;84;20944;-70
2021/04/12 14:22:50;;;;;;;13.65;7.45;;;;;;;13.73;57.04;101411.20;1785621;77;21348;-68
2021/04/12 14:25:40;;;;;;;11.57;7.97;;;;;;;13.61;57.10;101412.80;1778703;76;21212;-69
2021/04/12 14:28:19;;;;;;;11.85;8.35;;;;;;;13.50;57.32;101417.86;1867665;76;21304;-72
2021/04/12 14:31:06;;;;;;;13.15;7.12;;;;;;;13.43;57.55;101420.02;1867635;76;21000;-74